Terminal Aerodrome Forecast
Issued by NWS Tampa Bay Area, FL

Home | Current Version | Previous Version | Text Only | Print | Product List | Glossary Off
Versions: 1 2 3 4 5 6 7 8 9 10 11 12 13 14 15 16 17 18 19 20 21 22 23 24 25 26 27 28

000
FTUS42 KTBW 221511 AAB
TAFTPA
TAF AMD
KTPA 221511Z 2215/2312 21006KT P6SM VCTS FEW010 SCT040CB BKN070
     FM222000 23007KT P6SM VCTS SCT045CB BKN120
     FM230100 VRB03KT P6SM FEW030 SCT100 BKN250=

USA.gov is the U.S. government's official web portal to all federal, state and local government web resources and services.